createdAt,value
2023-04-10T00:00:07.283Z,91.68
2023-04-10T00:01:09.437Z,91.58
2023-04-10T00:02:07.764Z,91.68
2023-04-10T00:03:08.276Z,91.78
2023-04-10T00:04:08.211Z,92.20
2023-04-10T00:05:08.359Z,92.66
2023-04-10T00:06:08.292Z,92.82
2023-04-10T00:07:08.486Z,92.41
2023-04-10T00:08:08.648Z,92.51
2023-04-10T00:09:08.810Z,92.93
2023-04-10T00:10:08.956Z,92.76
2023-04-10T00:11:09.799Z,93.07
2023-04-10T00:12:09.307Z,93.02
2023-04-10T00:13:10.468Z,92.51
2023-04-10T00:14:09.593Z,92.61
2023-04-10T00:15:09.772Z,92.72
2023-04-10T00:16:09.988Z,92.10
2023-04-10T00:17:10.158Z,91.74
2023-04-10T00:18:10.329Z,91.68
2023-04-10T00:19:10.468Z,91.64
2023-04-10T00:20:10.590Z,92.05
2023-04-10T00:21:11.785Z,92.16
2023-04-10T00:22:11.449Z,91.60
2023-04-10T00:23:11.129Z,91.91
2023-04-10T00:24:11.338Z,91.49
2023-04-10T00:25:12.427Z,91.80
2023-04-10T00:26:11.764Z,91.39
2023-04-10T00:27:14.436Z,90.97
2023-04-10T00:28:12.000Z,90.62
2023-04-10T00:29:12.257Z,90.31
2023-04-10T00:30:12.410Z,90.62
2023-04-10T00:31:14.429Z,89.79
2023-04-10T00:32:12.824Z,90.16
2023-04-10T00:33:13.437Z,89.86
2023-04-10T00:34:14.013Z,89.44
2023-04-10T00:35:13.336Z,89.44
2023-04-10T00:36:14.022Z,89.65
2023-04-10T00:37:13.674Z,89.86
2023-04-10T00:38:13.805Z,88.78
2023-04-10T00:39:14.004Z,88.78
2023-04-10T00:40:14.501Z,88.01
2023-04-10T00:41:14.939Z,87.29
2023-04-10T00:42:14.934Z,87.04
2023-04-10T00:43:14.596Z,87.15
2023-04-10T00:44:15.473Z,85.91
2023-04-10T00:45:14.958Z,86.28
2023-04-10T00:46:15.170Z,86.18
2023-04-10T00:47:15.291Z,85.45
2023-04-10T00:48:15.476Z,85.21
2023-04-10T00:49:16.476Z,84.48
2023-04-10T00:50:15.900Z,84.73
2023-04-10T00:51:16.086Z,84.59
2023-04-10T00:52:16.278Z,84.38
2023-04-10T00:53:17.468Z,83.86
2023-04-10T00:54:16.663Z,84.07
2023-04-10T00:55:16.869Z,84.17
2023-04-10T00:56:17.065Z,84.23
2023-04-10T00:57:18.009Z,83.31
2023-04-10T00:58:17.497Z,83.31
2023-04-10T00:59:17.559Z,83.00
2023-04-10T01:00:18.449Z,83.31
2023-04-10T01:01:17.982Z,82.24
2023-04-10T01:02:18.671Z,82.65
2023-04-10T01:03:18.466Z,82.03
2023-04-10T01:04:18.566Z,82.34
2023-04-10T01:05:18.659Z,82.34
2023-04-10T01:06:18.840Z,82.55
2023-04-10T01:07:19.080Z,82.28
2023-04-10T01:08:19.233Z,82.45
2023-04-10T01:09:19.408Z,82.75
2023-04-10T01:10:20.449Z,82.79
2023-04-10T01:11:20.512Z,82.28
2023-04-10T01:12:20.942Z,82.34
2023-04-10T01:13:20.088Z,82.75
2023-04-10T01:14:20.252Z,82.24
2023-04-10T01:15:20.441Z,82.28
2023-04-10T01:16:20.686Z,82.28
2023-04-10T01:17:20.796Z,82.14
2023-04-10T01:18:21.956Z,81.82
2023-04-10T01:19:21.100Z,82.30
2023-04-10T01:20:21.982Z,81.07
2023-04-10T01:21:21.987Z,80.96
2023-04-10T01:22:22.446Z,80.44
2023-04-10T01:23:22.825Z,80.24
2023-04-10T01:24:21.954Z,80.34
2023-04-10T01:25:22.137Z,80.14
2023-04-10T01:26:22.952Z,80.00
2023-04-10T01:27:23.005Z,79.38
2023-04-10T01:28:22.704Z,79.27
2023-04-10T01:29:22.879Z,79.27
2023-04-10T01:30:23.040Z,78.97
2023-04-10T01:31:23.292Z,78.45
2023-04-10T01:32:24.034Z,78.52
2023-04-10T01:33:23.528Z,76.97
2023-04-10T01:34:24.512Z,77.59
2023-04-10T01:35:23.929Z,77.25
2023-04-10T01:36:24.524Z,76.93
2023-04-10T01:37:25.951Z,76.93
2023-04-10T01:38:24.469Z,76.21
2023-04-10T01:39:25.487Z,75.87
2023-04-10T01:40:24.770Z,75.15
2023-04-10T01:41:24.979Z,75.87
2023-04-10T01:42:25.159Z,75.25
2023-04-10T01:43:26.951Z,75.56
2023-04-10T01:44:25.537Z,75.15
2023-04-10T01:45:25.707Z,74.95
2023-04-10T01:46:25.885Z,74.95
2023-04-10T01:47:26.101Z,75.25
2023-04-10T01:48:26.264Z,74.95
2023-04-10T01:49:27.967Z,75.05
2023-04-10T01:50:26.596Z,75.87
2023-04-10T01:51:26.741Z,75.35
2023-04-10T01:52:27.528Z,75.87
2023-04-10T01:53:27.034Z,75.56
2023-04-10T01:54:27.170Z,76.70
2023-04-10T01:55:27.960Z,76.63
2023-04-10T01:56:27.476Z,77.45
2023-04-10T01:57:27.671Z,78.41
2023-04-10T01:58:27.857Z,76.83
2023-04-10T01:59:28.004Z,76.93
2023-04-10T02:00:28.272Z,77.38
2023-04-10T02:01:30.253Z,77.35
2023-04-10T02:02:30.639Z,78.66
2023-04-10T02:03:30.682Z,78.55
2023-04-10T02:04:28.914Z,78.41
2023-04-10T02:05:29.984Z,78.24
2023-04-10T02:06:30.965Z,78.34
2023-04-10T02:07:29.230Z,77.28
2023-04-10T02:08:29.411Z,77.08
2023-04-10T02:09:29.611Z,76.97
2023-04-10T02:10:29.805Z,76.76
2023-04-10T02:11:30.009Z,76.66
2023-04-10T02:12:30.156Z,76.87
2023-04-10T02:13:31.014Z,77.08
2023-04-10T02:14:30.565Z,77.08
2023-04-10T02:15:30.797Z,76.04
2023-04-10T02:16:33.516Z,77.08
2023-04-10T02:17:33.057Z,76.56
2023-04-10T02:18:31.206Z,77.18
2023-04-10T02:19:31.384Z,77.38
2023-04-10T02:20:31.614Z,77.08
2023-04-10T02:21:32.958Z,77.48
2023-04-10T02:22:31.971Z,78.00
2023-04-10T02:23:32.154Z,78.04
2023-04-10T02:24:32.347Z,77.22
2023-04-10T02:25:32.522Z,78.34
2023-04-10T02:26:32.708Z,77.31
2023-04-10T02:27:33.461Z,76.15
2023-04-10T02:28:32.994Z,75.84
2023-04-10T02:29:33.983Z,76.15
2023-04-10T02:30:33.384Z,76.66
2023-04-10T02:31:33.582Z,76.25
2023-04-10T02:32:33.839Z,76.21
2023-04-10T02:33:33.909Z,75.18
2023-04-10T02:34:34.093Z,75.29
2023-04-10T02:35:34.298Z,75.29
2023-04-10T02:36:35.962Z,74.12
2023-04-10T02:37:35.498Z,74.43
2023-04-10T02:38:34.852Z,74.22
2023-04-10T02:39:34.985Z,74.74
2023-04-10T02:40:35.137Z,74.63
2023-04-10T02:41:35.967Z,75.39
2023-04-10T02:42:35.457Z,75.46
2023-04-10T02:43:35.610Z,75.60
2023-04-10T02:44:35.757Z,73.71
2023-04-10T02:45:35.907Z,73.98
2023-04-10T02:46:36.099Z,74.08
2023-04-10T02:47:37.025Z,74.33
2023-04-10T02:48:36.442Z,74.12
2023-04-10T02:49:36.648Z,74.43
2023-04-10T02:50:36.813Z,74.02
2023-04-10T02:51:37.017Z,73.47
2023-04-10T02:52:37.217Z,73.13
2023-04-10T02:53:37.973Z,73.13
2023-04-10T02:54:37.488Z,72.85
2023-04-10T02:55:37.679Z,72.41
2023-04-10T02:56:37.875Z,72.72
2023-04-10T02:57:39.473Z,72.61
2023-04-10T02:58:38.217Z,72.44
2023-04-10T02:59:38.392Z,72.44
2023-04-10T03:00:39.469Z,72.92
2023-04-10T03:01:38.801Z,72.51
2023-04-10T03:02:39.224Z,72.72
2023-04-10T03:03:39.253Z,72.51
2023-04-10T03:04:39.442Z,72.44
2023-04-10T03:05:40.967Z,73.16
2023-04-10T03:06:40.489Z,72.85
2023-04-10T03:07:40.467Z,73.06
2023-04-10T03:08:40.973Z,73.36
2023-04-10T03:09:41.008Z,73.16
2023-04-10T03:10:40.373Z,74.12
2023-04-10T03:11:40.548Z,73.71
2023-04-10T03:12:40.689Z,74.63
2023-04-10T03:13:40.869Z,74.57
2023-04-10T03:14:41.020Z,75.08
2023-04-10T03:15:41.166Z,75.60
2023-04-10T03:16:41.346Z,75.94
2023-04-10T03:17:42.551Z,75.94
2023-04-10T03:18:42.976Z,77.08
2023-04-10T03:19:41.975Z,76.59
2023-04-10T03:20:43.774Z,77.42
2023-04-10T03:21:43.019Z,77.83
2023-04-10T03:22:42.512Z,77.25
2023-04-10T03:23:43.478Z,77.76
2023-04-10T03:24:42.846Z,78.28
2023-04-10T03:25:42.939Z,78.18
2023-04-10T03:26:44.193Z,77.31
2023-04-10T03:27:43.397Z,76.90
2023-04-10T03:28:43.539Z,76.18
2023-04-10T03:29:43.702Z,76.70
2023-04-10T03:30:44.979Z,77.11
2023-04-10T03:31:44.109Z,77.01
2023-04-10T03:32:44.292Z,77.73
2023-04-10T03:33:44.587Z,78.18
2023-04-10T03:34:44.673Z,78.59
2023-04-10T03:35:44.847Z,78.73
2023-04-10T03:36:45.045Z,78.49
2023-04-10T03:37:45.181Z,78.38
2023-04-10T03:38:45.970Z,78.69
2023-04-10T03:39:45.491Z,78.49
2023-04-10T03:40:45.659Z,78.18
2023-04-10T03:41:46.472Z,77.56
2023-04-10T03:42:45.945Z,77.22
2023-04-10T03:43:46.130Z,77.01
2023-04-10T03:44:46.309Z,77.11
2023-04-10T03:45:46.440Z,76.87
2023-04-10T03:46:46.687Z,76.87
2023-04-10T03:47:46.801Z,76.56
2023-04-10T03:48:46.994Z,76.76
2023-04-10T03:49:47.166Z,76.35
2023-04-10T03:50:47.309Z,76.56
2023-04-10T03:51:47.487Z,76.35
2023-04-10T03:52:47.639Z,76.15
2023-04-10T03:53:47.804Z,75.94
2023-04-10T03:54:48.975Z,75.08
2023-04-10T03:55:48.206Z,74.88
2023-04-10T03:56:49.480Z,75.08
2023-04-10T03:57:49.475Z,74.02
2023-04-10T03:58:48.737Z,73.91
2023-04-10T03:59:48.894Z,74.12
2023-04-10T04:00:50.020Z,73.16
2023-04-10T04:01:49.310Z,73.16
2023-04-10T04:02:49.608Z,72.85
2023-04-10T04:03:49.814Z,72.75
2023-04-10T04:04:50.618Z,72.54
2023-04-10T04:05:50.074Z,72.30
2023-04-10T04:06:50.238Z,72.41
2023-04-10T04:07:50.432Z,72.41
2023-04-10T04:08:50.628Z,72.30
2023-04-10T04:09:51.496Z,72.20
2023-04-10T04:10:51.044Z,71.89
2023-04-10T04:11:51.215Z,71.79
2023-04-10T04:12:51.982Z,71.07
2023-04-10T04:13:51.864Z,71.04
2023-04-10T04:14:52.479Z,70.76
2023-04-10T04:15:52.009Z,71.75
2023-04-10T04:16:52.178Z,71.55
2023-04-10T04:17:52.391Z,71.55
2023-04-10T04:18:53.483Z,71.14
2023-04-10T04:19:52.747Z,70.83
2023-04-10T04:20:52.916Z,70.59
2023-04-10T04:21:53.085Z,70.59
2023-04-10T04:22:53.273Z,70.21
2023-04-10T04:23:55.490Z,71.11
2023-04-10T04:24:53.584Z,70.83
2023-04-10T04:25:53.770Z,70.49
2023-04-10T04:26:53.941Z,70.59
2023-04-10T04:27:54.139Z,70.52
2023-04-10T04:28:54.973Z,70.70
2023-04-10T04:29:54.551Z,70.62
2023-04-10T04:30:55.534Z,71.21
2023-04-10T04:31:54.944Z,70.42
2023-04-10T04:32:56.076Z,71.24
2023-04-10T04:33:56.056Z,71.04
2023-04-10T04:34:56.487Z,71.14
2023-04-10T04:35:55.757Z,71.04
2023-04-10T04:36:55.922Z,71.14
2023-04-10T04:37:56.076Z,70.59
2023-04-10T04:38:56.207Z,70.83
2023-04-10T04:39:57.502Z,71.14
2023-04-10T04:40:56.519Z,70.73
2023-04-10T04:41:56.675Z,70.83
2023-04-10T04:42:57.488Z,71.55
2023-04-10T04:43:56.980Z,70.94
2023-04-10T04:44:57.143Z,71.75
2023-04-10T04:45:58.559Z,71.45
2023-04-10T04:46:57.421Z,70.73
2023-04-10T04:47:57.701Z,71.55
2023-04-10T04:48:57.760Z,71.55
2023-04-10T04:49:57.970Z,71.04
2023-04-10T04:50:58.116Z,71.34
2023-04-10T04:51:58.267Z,70.73
2023-04-10T04:52:58.449Z,70.79
2023-04-10T04:53:58.596Z,70.39
2023-04-10T04:54:58.767Z,70.90
2023-04-10T04:55:58.919Z,70.73
2023-04-10T04:56:59.057Z,70.79
2023-04-10T04:57:59.237Z,71.21
2023-04-10T04:59:00.056Z,70.79
2023-04-10T05:00:00.491Z,70.28
2023-04-10T05:01:00.580Z,70.90
2023-04-10T05:02:01.719Z,70.52
2023-04-10T05:03:01.106Z,71.04
2023-04-10T05:04:01.109Z,70.94
2023-04-10T05:05:01.366Z,71.24
2023-04-10T05:06:00.756Z,71.31
2023-04-10T05:07:01.507Z,71.51
2023-04-10T05:08:02.035Z,71.45
2023-04-10T05:09:03.515Z,71.55
2023-04-10T05:10:01.478Z,71.45
2023-04-10T05:11:01.636Z,71.55
2023-04-10T05:12:01.773Z,71.14
2023-04-10T05:13:02.498Z,71.75
2023-04-10T05:14:02.118Z,72.17
2023-04-10T05:15:02.991Z,71.75
2023-04-10T05:16:02.530Z,72.68
2023-04-10T05:17:03.854Z,72.41
2023-04-10T05:18:03.970Z,72.17
2023-04-10T05:19:04.491Z,72.72
2023-04-10T05:20:03.340Z,71.96
2023-04-10T05:21:03.489Z,71.79
2023-04-10T05:22:03.630Z,72.09
2023-04-10T05:23:04.508Z,71.66
2023-04-10T05:24:05.016Z,72.38
2023-04-10T05:25:04.996Z,71.66
2023-04-10T05:26:04.983Z,71.04
2023-04-10T05:27:05.504Z,70.59
2023-04-10T05:28:04.630Z,71.34
2023-04-10T05:29:05.501Z,70.28
2023-04-10T05:30:06.009Z,70.66
2023-04-10T05:31:06.027Z,71.00
2023-04-10T05:32:05.443Z,71.31
2023-04-10T05:33:06.537Z,71.08
2023-04-10T05:34:06.532Z,71.41
2023-04-10T05:35:06.002Z,69.94
2023-04-10T05:36:06.239Z,70.56
2023-04-10T05:37:07.507Z,70.36
2023-04-10T05:38:06.523Z,69.74
2023-04-10T05:39:09.005Z,69.94
2023-04-10T05:40:06.887Z,69.81
2023-04-10T05:41:07.106Z,69.09
2023-04-10T05:42:09.004Z,68.78
2023-04-10T05:43:08.028Z,68.68
2023-04-10T05:44:07.680Z,68.68
2023-04-10T05:45:07.857Z,68.85
2023-04-10T05:46:08.093Z,68.34
2023-04-10T05:47:08.291Z,67.52
2023-04-10T05:48:09.511Z,67.90
2023-04-10T05:49:09.373Z,68.21
2023-04-10T05:50:08.801Z,68.10
2023-04-10T05:51:08.983Z,66.94
2023-04-10T05:52:09.198Z,66.84
2023-04-10T05:53:10.056Z,67.14
2023-04-10T05:54:09.592Z,67.83
2023-04-10T05:55:09.772Z,67.14
2023-04-10T05:56:10.695Z,67.25
2023-04-10T05:57:10.123Z,67.14
2023-04-10T05:58:11.049Z,67.56
2023-04-10T05:59:11.000Z,67.05
2023-04-10T06:00:10.665Z,66.97
2023-04-10T06:01:10.851Z,67.38
2023-04-10T06:02:11.043Z,67.46
2023-04-10T06:03:12.056Z,67.49
2023-04-10T06:04:12.129Z,67.97
2023-04-10T06:05:11.508Z,67.49
2023-04-10T06:06:11.709Z,67.69
2023-04-10T06:07:13.007Z,67.49
2023-04-10T06:08:12.566Z,67.28
2023-04-10T06:09:12.359Z,67.28
2023-04-10T06:10:12.538Z,67.18
2023-04-10T06:11:12.712Z,67.86
2023-04-10T06:12:13.504Z,67.14
2023-04-10T06:13:14.896Z,66.94
2023-04-10T06:14:13.329Z,66.46
2023-04-10T06:15:13.537Z,66.63
2023-04-10T06:16:14.523Z,66.22
2023-04-10T06:17:13.960Z,66.43
2023-04-10T06:18:15.067Z,66.33
2023-04-10T06:19:14.558Z,65.81
2023-04-10T06:20:15.375Z,65.61
2023-04-10T06:21:14.658Z,65.81
2023-04-10T06:22:15.003Z,66.12
2023-04-10T06:23:14.968Z,66.22
2023-04-10T06:24:15.170Z,65.61
2023-04-10T06:25:15.379Z,65.30
2023-04-10T06:26:15.547Z,65.27
2023-04-10T06:27:16.508Z,64.94
2023-04-10T06:28:15.913Z,64.32
2023-04-10T06:29:16.098Z,64.32
2023-04-10T06:30:16.272Z,64.53
2023-04-10T06:31:16.493Z,63.98
2023-04-10T06:32:16.707Z,64.39
2023-04-10T06:33:16.853Z,65.11
2023-04-10T06:34:17.033Z,63.44
2023-04-10T06:35:17.881Z,63.54
2023-04-10T06:36:17.449Z,63.95
2023-04-10T06:37:17.635Z,62.49
2023-04-10T06:38:17.768Z,63.51
2023-04-10T06:39:20.018Z,63.07
2023-04-10T06:40:18.150Z,61.58
2023-04-10T06:41:19.112Z,61.18
2023-04-10T06:42:18.553Z,59.52
2023-04-10T06:43:19.566Z,59.16
2023-04-10T06:44:18.817Z,58.89
2023-04-10T06:45:18.985Z,59.61
2023-04-10T06:46:20.900Z,56.85
2023-04-10T06:47:19.318Z,56.83
2023-04-10T06:48:19.514Z,56.88
2023-04-10T06:49:19.671Z,54.05
2023-04-10T06:50:19.812Z,54.24
2023-04-10T06:51:20.003Z,52.56
2023-04-10T06:52:20.586Z,54.87
2023-04-10T06:53:20.388Z,55.12
2023-04-10T06:54:20.559Z,52.91
2023-04-10T06:55:21.584Z,52.23
2023-04-10T06:56:20.995Z,52.10
2023-04-10T06:57:21.299Z,53.12
2023-04-10T06:58:21.424Z,54.18
2023-04-10T06:59:21.597Z,54.08
2023-04-10T07:00:21.773Z,53.63
2023-04-10T07:01:22.636Z,55.41
2023-04-10T07:02:22.361Z,54.90
2023-04-10T07:03:22.433Z,55.05
2023-04-10T07:04:22.638Z,54.28
2023-04-10T07:05:23.904Z,52.63
2023-04-10T07:06:22.959Z,52.43
2023-04-10T07:07:24.028Z,51.90
2023-04-10T07:08:23.312Z,50.81
2023-04-10T07:09:23.533Z,52.30
2023-04-10T07:10:24.478Z,51.39
2023-04-10T07:11:23.870Z,50.68
2023-04-10T07:12:24.036Z,50.56
2023-04-10T07:13:25.033Z,50.10
2023-04-10T07:14:25.074Z,49.04
2023-04-10T07:15:24.615Z,48.86
2023-04-10T07:16:24.848Z,49.19
2023-04-10T07:17:25.074Z,49.04
2023-04-10T07:18:27.085Z,49.11
2023-04-10T07:19:25.451Z,49.11
2023-04-10T07:20:25.624Z,47.92
2023-04-10T07:21:25.760Z,49.16
2023-04-10T07:22:25.951Z,49.67
2023-04-10T07:23:27.077Z,49.27
2023-04-10T07:24:26.329Z,50.26
2023-04-10T07:25:27.079Z,49.14
2023-04-10T07:26:26.682Z,48.83
2023-04-10T07:27:26.813Z,48.83
2023-04-10T07:28:26.955Z,48.46
2023-04-10T07:29:27.133Z,48.86
2023-04-10T07:30:27.295Z,48.41
2023-04-10T07:31:28.213Z,48.49
2023-04-10T07:32:27.871Z,46.97
2023-04-10T07:33:28.942Z,46.97
2023-04-10T07:34:28.049Z,48.46
2023-04-10T07:35:28.259Z,49.23
2023-04-10T07:36:29.039Z,50.90
2023-04-10T07:37:28.548Z,51.34
2023-04-10T07:38:29.540Z,52.56
2023-04-10T07:39:28.941Z,52.37
2023-04-10T07:40:29.149Z,53.27
2023-04-10T07:41:30.420Z,51.84
2023-04-10T07:42:29.585Z,52.05
2023-04-10T07:43:30.580Z,51.21
2023-04-10T07:44:31.540Z,50.98
2023-04-10T07:45:30.252Z,50.76
2023-04-10T07:46:31.047Z,50.73
2023-04-10T07:47:30.528Z,51.21
2023-04-10T07:48:30.577Z,49.59
2023-04-10T07:49:31.549Z,49.59
2023-04-10T07:50:30.965Z,49.31
2023-04-10T07:51:31.153Z,50.15
2023-04-10T07:52:31.376Z,50.35
2023-04-10T07:53:33.052Z,51.18
2023-04-10T07:54:31.806Z,51.21
2023-04-10T07:55:32.017Z,51.16
2023-04-10T07:56:32.190Z,50.65
2023-04-10T07:57:32.505Z,51.65
2023-04-10T07:58:32.605Z,51.75
2023-04-10T07:59:32.806Z,50.12
2023-04-10T08:00:33.565Z,50.18
2023-04-10T08:01:33.230Z,49.80
2023-04-10T08:02:33.505Z,47.66
2023-04-10T08:03:34.593Z,47.07
2023-04-10T08:04:34.673Z,46.75
2023-04-10T08:05:33.901Z,46.97
2023-04-10T08:06:34.927Z,47.38
2023-04-10T08:07:34.245Z,48.26
2023-04-10T08:08:35.051Z,48.11
2023-04-10T08:09:35.554Z,49.02
2023-04-10T08:10:34.695Z,48.23
2023-04-10T08:11:37.300Z,48.68
2023-04-10T08:12:35.041Z,48.99
2023-04-10T08:13:35.243Z,48.86
2023-04-10T08:14:35.632Z,48.83
2023-04-10T08:15:35.555Z,49.04
2023-04-10T08:16:35.743Z,48.83
2023-04-10T08:17:35.931Z,48.96
2023-04-10T08:18:36.109Z,49.14
2023-04-10T08:19:36.399Z,48.11
2023-04-10T08:20:36.439Z,47.86
2023-04-10T08:21:36.606Z,47.19
2023-04-10T08:22:37.553Z,45.97
2023-04-10T08:23:36.968Z,46.22
2023-04-10T08:24:37.169Z,47.47
2023-04-10T08:25:38.057Z,47.17
2023-04-10T08:26:38.091Z,47.98
2023-04-10T08:27:38.560Z,48.08
2023-04-10T08:28:37.847Z,46.28
2023-04-10T08:29:38.001Z,47.22
2023-04-10T08:30:38.244Z,47.72
2023-04-10T08:31:38.310Z,49.37
2023-04-10T08:32:38.478Z,48.33
2023-04-10T08:33:39.561Z,48.82
2023-04-10T08:34:39.584Z,48.39
2023-04-10T08:35:39.606Z,47.96
2023-04-10T08:36:39.131Z,48.36
2023-04-10T08:37:40.277Z,46.32
2023-04-10T08:38:39.624Z,47.96
2023-04-10T08:39:39.674Z,47.74
2023-04-10T08:40:39.828Z,47.88
2023-04-10T08:41:39.967Z,47.30
2023-04-10T08:42:40.137Z,48.66
2023-04-10T08:43:40.317Z,48.80
2023-04-10T08:44:41.100Z,49.44
2023-04-10T08:45:41.603Z,50.76
2023-04-10T08:46:40.805Z,50.68
2023-04-10T08:47:40.964Z,50.68
2023-04-10T08:48:41.018Z,50.84
2023-04-10T08:49:41.174Z,49.33
2023-04-10T08:50:42.109Z,50.65
2023-04-10T08:51:42.104Z,50.63
2023-04-10T08:52:42.566Z,49.31
2023-04-10T08:53:41.829Z,49.29
2023-04-10T08:54:42.003Z,49.16
2023-04-10T08:55:42.162Z,48.86
2023-04-10T08:56:42.321Z,49.14
2023-04-10T08:57:47.850Z,49.11
2023-04-10T08:58:44.697Z,48.79
2023-04-10T08:59:42.796Z,47.15
2023-04-10T09:00:42.954Z,47.35
2023-04-10T09:01:43.228Z,48.87
2023-04-10T09:02:43.410Z,48.49
2023-04-10T09:03:43.786Z,49.17
2023-04-10T09:04:43.743Z,49.25
2023-04-10T09:05:43.815Z,47.71
2023-04-10T09:06:44.973Z,47.59
2023-04-10T09:07:44.105Z,46.56
2023-04-10T09:08:45.937Z,46.68
2023-04-10T09:09:44.446Z,46.98
2023-04-10T09:10:44.630Z,47.31
2023-04-10T09:11:44.791Z,46.83
2023-04-10T09:12:46.068Z,47.13
2023-04-10T09:13:46.072Z,46.40
2023-04-10T09:14:45.422Z,45.51
2023-04-10T09:15:45.597Z,46.92
2023-04-10T09:16:45.781Z,46.80
2023-04-10T09:17:46.650Z,47.41
2023-04-10T09:18:46.175Z,46.80
2023-04-10T09:19:46.365Z,46.70
2023-04-10T09:20:46.532Z,46.07
2023-04-10T09:21:48.572Z,45.77
2023-04-10T09:22:47.613Z,46.20
2023-04-10T09:23:46.989Z,46.32
2023-04-10T09:24:48.078Z,46.12
2023-04-10T09:25:49.326Z,47.38
2023-04-10T09:26:47.575Z,47.78
2023-04-10T09:27:47.744Z,47.58
2023-04-10T09:28:48.637Z,47.66
2023-04-10T09:29:48.160Z,47.55
2023-04-10T09:30:48.349Z,47.86
2023-04-10T09:31:48.636Z,48.18
2023-04-10T09:32:48.743Z,47.35
2023-04-10T09:33:49.594Z,47.33
2023-04-10T09:34:50.575Z,46.91
2023-04-10T09:35:49.194Z,46.28
2023-04-10T09:36:49.348Z,46.58
2023-04-10T09:37:49.487Z,46.07
2023-04-10T09:38:49.658Z,46.70
2023-04-10T09:39:49.936Z,47.69
2023-04-10T09:40:52.347Z,46.37
2023-04-10T09:41:50.198Z,47.26
2023-04-10T09:42:50.365Z,45.83
2023-04-10T09:43:50.539Z,45.42
2023-04-10T09:44:50.713Z,45.67
2023-04-10T09:45:51.640Z,46.80
2023-04-10T09:46:51.680Z,46.30
2023-04-10T09:47:51.267Z,46.25
2023-04-10T09:48:51.426Z,46.25
2023-04-10T09:49:52.130Z,46.28
2023-04-10T09:50:51.785Z,45.97
2023-04-10T09:51:52.581Z,46.07
2023-04-10T09:52:53.080Z,46.91
2023-04-10T09:53:53.341Z,46.72
2023-04-10T09:54:53.128Z,46.60
2023-04-10T09:55:53.621Z,46.50
2023-04-10T09:56:55.087Z,48.39
2023-04-10T09:57:54.081Z,46.07
2023-04-10T09:58:53.545Z,46.28
2023-04-10T09:59:53.380Z,45.87
2023-04-10T10:00:53.521Z,46.60
2023-04-10T10:01:53.709Z,47.11
2023-04-10T10:02:54.038Z,47.08
2023-04-10T10:03:54.050Z,46.91
2023-04-10T10:04:54.152Z,47.23
2023-04-10T10:05:54.344Z,47.23
2023-04-10T10:06:56.956Z,47.94
2023-04-10T10:07:54.684Z,48.02
2023-04-10T10:08:54.919Z,47.99
2023-04-10T10:09:55.038Z,47.39
2023-04-10T10:10:55.179Z,47.28
2023-04-10T10:11:56.092Z,46.07
2023-04-10T10:12:55.457Z,47.39
2023-04-10T10:13:55.601Z,46.78
2023-04-10T10:14:55.787Z,45.69
2023-04-10T10:15:56.001Z,46.92
2023-04-10T10:16:57.113Z,45.79
2023-04-10T10:17:56.447Z,46.28
2023-04-10T10:18:56.832Z,45.57
2023-04-10T10:19:56.770Z,46.17
2023-04-10T10:20:56.940Z,46.28
2023-04-10T10:21:57.964Z,45.89
2023-04-10T10:22:57.217Z,45.79
2023-04-10T10:23:59.099Z,45.41
2023-04-10T10:24:57.632Z,47.23
2023-04-10T10:25:57.828Z,46.22
2023-04-10T10:26:58.024Z,46.91
2023-04-10T10:27:58.184Z,47.08
2023-04-10T10:29:00.119Z,45.34
2023-04-10T10:29:59.748Z,46.86
2023-04-10T10:30:58.737Z,46.25
2023-04-10T10:31:59.009Z,46.25
2023-04-10T10:32:59.802Z,46.21
2023-04-10T10:33:59.315Z,46.13
2023-04-10T10:34:59.485Z,46.59
2023-04-10T10:36:00.183Z,44.19
2023-04-10T10:37:01.603Z,43.71
2023-04-10T10:38:00.023Z,44.43
2023-04-10T10:39:00.188Z,44.25
2023-04-10T10:40:01.152Z,45.59
2023-04-10T10:41:00.539Z,46.30
2023-04-10T10:42:00.715Z,44.15
2023-04-10T10:43:01.166Z,45.26
2023-04-10T10:44:01.061Z,43.95
2023-04-10T10:45:02.148Z,45.39
2023-04-10T10:46:02.516Z,45.16
2023-04-10T10:47:01.549Z,45.77
2023-04-10T10:48:01.848Z,44.94
2023-04-10T10:49:01.931Z,46.36
2023-04-10T10:50:02.124Z,46.23
2023-04-10T10:51:02.391Z,45.81
2023-04-10T10:52:02.480Z,45.81
2023-04-10T10:53:02.754Z,45.90
2023-04-10T10:54:02.833Z,45.62
2023-04-10T10:55:03.024Z,45.45
2023-04-10T10:56:03.213Z,46.17
2023-04-10T10:57:03.395Z,46.68
2023-04-10T10:58:04.111Z,45.47
2023-04-10T10:59:03.760Z,46.58
2023-04-10T11:00:03.942Z,46.70
2023-04-10T11:01:05.665Z,45.79
2023-04-10T11:02:04.505Z,46.20
2023-04-10T11:03:04.639Z,47.08
2023-04-10T11:04:04.935Z,46.88
2023-04-10T11:05:05.021Z,46.80
2023-04-10T11:06:05.214Z,46.80
2023-04-10T11:07:05.437Z,46.50
2023-04-10T11:08:05.638Z,46.30
2023-04-10T11:09:06.630Z,46.80
2023-04-10T11:10:06.056Z,45.59
2023-04-10T11:11:07.016Z,45.87
2023-04-10T11:12:07.125Z,43.95
2023-04-10T11:13:07.615Z,44.96
2023-04-10T11:14:07.623Z,45.16
2023-04-10T11:15:07.021Z,44.54
2023-04-10T11:16:09.146Z,44.03
2023-04-10T11:17:07.450Z,44.51
2023-04-10T11:18:07.561Z,44.54
2023-04-10T11:19:14.187Z,43.52
2023-04-10T11:20:09.966Z,43.02
2023-04-10T11:21:08.624Z,43.91
2023-04-10T11:22:08.612Z,42.40
2023-04-10T11:23:09.236Z,40.90
2023-04-10T11:24:08.615Z,40.19
2023-04-10T11:25:08.792Z,40.31
2023-04-10T11:26:09.628Z,39.93
2023-04-10T11:27:09.171Z,40.94
2023-04-10T11:28:10.130Z,41.22
2023-04-10T11:29:09.518Z,41.02
2023-04-10T11:30:09.700Z,40.92
2023-04-10T11:31:11.628Z,40.94
2023-04-10T11:32:10.300Z,41.24
2023-04-10T11:33:10.339Z,41.93
2023-04-10T11:34:10.537Z,41.32
2023-04-10T11:35:10.762Z,41.32
2023-04-10T11:36:10.928Z,41.32
2023-04-10T11:37:11.107Z,41.10
2023-04-10T11:38:11.275Z,41.71
2023-04-10T11:39:11.449Z,40.68
2023-04-10T11:40:12.638Z,42.18
2023-04-10T11:41:11.783Z,40.94
2023-04-10T11:42:12.626Z,41.25
2023-04-10T11:43:12.155Z,41.06
2023-04-10T11:44:13.166Z,41.67
2023-04-10T11:45:12.586Z,41.18
2023-04-10T11:46:12.837Z,40.76
2023-04-10T11:47:12.906Z,42.07
2023-04-10T11:48:13.062Z,42.15
2023-04-10T11:49:13.227Z,40.34
2023-04-10T11:50:13.463Z,40.84
2023-04-10T11:51:13.550Z,40.46
2023-04-10T11:52:13.716Z,40.98
2023-04-10T11:53:13.886Z,41.77
2023-04-10T11:54:14.078Z,41.06
2023-04-10T11:55:14.253Z,41.97
2023-04-10T11:56:14.427Z,40.66
2023-04-10T11:57:14.660Z,41.67
2023-04-10T11:58:14.844Z,41.06
2023-04-10T11:59:15.023Z,42.55
2023-04-10T12:00:15.178Z,42.76
2023-04-10T12:01:15.356Z,42.15
2023-04-10T12:02:15.797Z,41.85
2023-04-10T12:03:15.813Z,42.05
2023-04-10T12:04:15.920Z,41.73
2023-04-10T12:05:16.065Z,41.83
2023-04-10T12:06:17.633Z,42.33
2023-04-10T12:07:16.257Z,41.63
2023-04-10T12:08:16.451Z,41.53
2023-04-10T12:09:16.612Z,43.16
2023-04-10T12:10:16.771Z,42.74
2023-04-10T12:11:17.630Z,42.13
2023-04-10T12:12:17.681Z,41.13
2023-04-10T12:13:17.681Z,42.33
2023-04-10T12:14:17.582Z,42.54
2023-04-10T12:15:17.740Z,42.13
2023-04-10T12:16:17.996Z,42.54
2023-04-10T12:17:18.127Z,40.94
2023-04-10T12:18:18.336Z,40.96
2023-04-10T12:19:18.510Z,42.60
2023-04-10T12:20:19.677Z,43.63
2023-04-10T12:21:20.004Z,41.79
2023-04-10T12:22:19.644Z,42.38
2023-04-10T12:23:19.315Z,43.28
2023-04-10T12:24:20.144Z,42.05
2023-04-10T12:25:19.707Z,41.56
2023-04-10T12:26:20.570Z,41.36
2023-04-10T12:27:20.098Z,43.37
2023-04-10T12:28:20.301Z,42.55
2023-04-10T12:29:20.500Z,40.64
2023-04-10T12:30:20.671Z,39.83
2023-04-10T12:31:21.712Z,41.73
2023-04-10T12:32:21.771Z,40.64
2023-04-10T12:33:21.247Z,40.46
2023-04-10T12:34:21.423Z,40.96
2023-04-10T12:35:21.618Z,41.06
2023-04-10T12:36:21.858Z,40.84
2023-04-10T12:37:21.983Z,38.82
2023-04-10T12:38:22.176Z,40.32
2023-04-10T12:39:22.345Z,38.71
2023-04-10T12:40:22.545Z,40.12
2023-04-10T12:41:23.651Z,39.94
2023-04-10T12:42:22.988Z,39.83
2023-04-10T12:43:23.078Z,38.84
2023-04-10T12:44:23.705Z,39.65
2023-04-10T12:45:23.499Z,39.85
2023-04-10T12:46:23.741Z,39.95
2023-04-10T12:47:23.915Z,40.58
2023-04-10T12:48:24.046Z,41.06
2023-04-10T12:49:24.233Z,42.40
2023-04-10T12:50:24.400Z,41.08
2023-04-10T12:51:24.611Z,42.07
2023-04-10T12:52:24.762Z,40.96
2023-04-10T12:53:25.919Z,39.65
2023-04-10T12:54:25.110Z,40.76